Time;durP1;ratioP1;P1;durP2;ratioP2;P2;SDS_P1;SDS_P2;PMS_P1;PMS_P2;Temp;Humidity;BMP_temperature;BMP_pressure;BME280_temperature;BME280_humidity;BME280_pressure;Samples;Min_cycle;Max_cycle;Signal;HPM_P1;HPM_P2
2022/09/08 00:01:33;;;;;;;2.35;0.95;;;18.70;99.90;;;;;;6146499;23;20013;-72
2022/09/08 00:04:01;;;;;;;1.67;1.10;;;18.70;99.90;;;;;;6147964;23;20005;-72
2022/09/08 00:06:27;;;;;;;7.03;1.50;;;;;;;;;;6150734;23;20444;-73
2022/09/08 00:08:55;;;;;;;3.80;1.02;;;18.40;99.90;;;;;;6150599;23;20036;-73
2022/09/08 00:11:23;;;;;;;0.60;0.60;;;18.50;99.90;;;;;;6146313;23;20017;-73
2022/09/08 00:13:48;;;;;;;1.67;0.85;;;18.60;99.90;;;;;;6148836;23;20437;-73
2022/09/08 00:16:18;;;;;;;0.85;0.80;;;;;;;;;;6149696;23;20021;-73
2022/09/08 00:18:44;;;;;;;1.63;1.08;;;18.60;99.90;;;;;;6148749;23;20005;-72
2022/09/08 00:21:10;;;;;;;1.98;1.27;;;18.70;99.90;;;;;;6148493;23;20032;-72
2022/09/08 00:23:36;;;;;;;7.13;1.10;;;18.40;99.90;;;;;;6148287;23;20372;-73
2022/09/08 00:26:03;;;;;;;4.80;1.15;;;;;;;;;;6151157;23;20444;-72
2022/09/08 00:28:28;;;;;;;3.25;1.13;;;18.20;99.90;;;;;;6151988;23;20080;-72
2022/09/08 00:30:54;;;;;;;1.02;0.82;;;;;;;;;;6149822;23;20369;-72
2022/09/08 00:33:21;;;;;;;4.47;1.10;;;;;;;;;;6149687;23;20013;-72
2022/09/08 00:35:48;;;;;;;5.47;0.80;;;;;;;;;;6151680;23;20555;-73
2022/09/08 00:38:14;;;;;;;0.75;0.70;;;;;;;;;;6151898;23;20005;-73
2022/09/08 00:40:46;;;;;;;1.17;0.98;;;17.90;99.90;;;;;;6149437;23;20467;-72
2022/09/08 00:43:28;;;;;;;2.53;1.02;;;17.90;99.90;;;;;;6149292;23;20021;-72
2022/09/08 00:45:54;;;;;;;1.35;0.68;;;;;;;;;;6151419;23;20005;-72
2022/09/08 00:48:21;;;;;;;2.28;0.90;;;;;;;;;;6151355;23;20002;-72
2022/09/08 00:50:47;;;;;;;1.17;0.93;;;;;;;;;;6143704;23;20028;-72
2022/09/08 00:53:16;;;;;;;2.13;0.80;;;17.50;99.90;;;;;;6149405;23;20005;-72
2022/09/08 00:55:42;;;;;;;3.33;0.70;;;17.40;99.90;;;;;;6150407;23;20001;-71
2022/09/08 00:58:08;;;;;;;2.25;1.00;;;17.00;99.90;;;;;;6151333;23;20002;-72
2022/09/08 01:00:40;;;;;;;1.13;0.90;;;17.30;99.90;;;;;;6148894;23;20135;-72
2022/09/08 01:03:08;;;;;;;1.65;1.02;;;17.10;99.90;;;;;;6149401;23;20456;-72
2022/09/08 01:05:58;;;;;;;1.17;0.90;;;17.10;99.90;;;;;;6149467;23;20009;-72
2022/09/08 01:14:11;;;;;;;1.75;1.08;;;16.50;99.90;;;;;;6148822;23;20640;-72
2022/09/08 01:16:42;;;;;;;5.53;1.07;;;16.50;99.90;;;;;;6150905;23;20465;-72
2022/09/08 01:19:15;;;;;;;0.95;0.80;;;16.40;99.90;;;;;;6150572;23;20080;-72
2022/09/08 01:21:53;;;;;;;5.53;0.95;;;16.40;99.90;;;;;;6148137;23;20506;-72
2022/09/08 01:24:34;;;;;;;2.53;1.25;;;16.40;99.90;;;;;;6147518;23;20720;-73
2022/09/08 01:27:26;;;;;;;1.27;0.60;;;16.30;99.90;;;;;;6150954;23;20001;-72
2022/09/08 01:29:59;;;;;;;0.93;0.80;;;16.30;99.90;;;;;;6149633;23;20010;-72
2022/09/08 01:32:31;;;;;;;0.65;0.65;;;16.00;99.90;;;;;;6148590;23;20375;-72
2022/09/08 01:34:57;;;;;;;5.45;0.88;;;;;;;;;;6150316;23;20026;-72
2022/09/08 01:37:23;;;;;;;1.88;0.60;;;;;;;;;;6151228;23;20010;-72
2022/09/08 01:39:49;;;;;;;0.80;0.80;;;;;;;;;;6148814;23;20478;-72
2022/09/08 01:42:15;;;;;;;5.28;1.10;;;;;;;;;;6148857;23;20068;-72
2022/09/08 01:44:45;;;;;;;0.75;0.75;;;;;;;;;;6149793;23;20047;-72
2022/09/08 01:47:11;;;;;;;0.60;0.60;;;15.90;99.90;;;;;;6150740;23;20005;-71
2022/09/08 01:49:37;;;;;;;1.73;0.98;;;;;;;;;;6150195;23;20348;-72
2022/09/08 01:52:04;;;;;;;5.15;1.00;;;15.90;99.90;;;;;;6146138;23;20451;-72
2022/09/08 01:54:30;;;;;;;4.57;1.10;;;;;;;;;;6149734;23;20035;-72
2022/09/08 01:56:56;;;;;;;1.63;1.17;;;;;;;;;;6150839;23;20005;-72
2022/09/08 01:59:22;;;;;;;3.83;1.02;;;;;;;;;;6149882;23;20028;-72
2022/09/08 02:01:49;;;;;;;1.02;0.90;;;15.70;99.90;;;;;;6147511;23;20031;-72
2022/09/08 02:04:15;;;;;;;0.77;0.70;;;;;;;;;;6149957;23;20393;-72
2022/09/08 02:06:41;;;;;;;3.53;1.02;;;;;;;;;;6150340;23;20016;-72
2022/09/08 02:09:07;;;;;;;1.15;0.75;;;15.70;99.90;;;;;;6150704;23;20005;-71
2022/09/08 02:11:32;;;;;;;0.88;0.80;;;15.30;99.90;;;;;;6147919;23;20091;-72
2022/09/08 02:13:58;;;;;;;1.10;0.80;;;;;;;;;;6148350;23;20033;-72
2022/09/08 02:16:24;;;;;;;0.95;0.88;;;15.30;99.90;;;;;;6149796;23;20383;-72
2022/09/08 02:18:53;;;;;;;1.33;0.73;;;15.20;99.90;;;;;;6150578;23;20048;-72
2022/09/08 02:21:20;;;;;;;0.60;0.60;;;15.40;99.90;;;;;;6147751;23;20479;-73
2022/09/08 02:23:48;;;;;;;2.63;1.20;;;15.40;99.90;;;;;;6148717;23;20762;-73
2022/09/08 02:26:15;;;;;;;1.95;0.88;;;15.30;99.90;;;;;;6149559;23;20009;-73
2022/09/08 02:28:41;;;;;;;3.67;0.80;;;16.40;99.90;;;;;;6150991;23;20009;-72
2022/09/08 02:31:07;;;;;;;0.77;0.77;;;;;;;;;;6148902;23;20101;-72
2022/09/08 02:33:33;;;;;;;4.47;1.00;;;;;;;;;;6147737;23;20004;-72
2022/09/08 02:35:59;;;;;;;1.50;0.85;;;;;;;;;;6150086;23;20064;-72
2022/09/08 02:38:25;;;;;;;0.65;0.65;;;15.00;99.90;;;;;;6150172;23;20002;-73
2022/09/08 02:40:51;;;;;;;2.63;0.82;;;;;;;;;;6148881;23;20025;-73
2022/09/08 02:43:17;;;;;;;1.20;1.08;;;15.00;99.90;;;;;;6148176;23;20008;-72
2022/09/08 02:45:44;;;;;;;1.67;1.05;;;;;;;;;;6149446;23;20345;-73
2022/09/08 02:48:10;;;;;;;2.17;0.85;;;15.10;99.90;;;;;;6149927;23;20006;-73
2022/09/08 02:50:36;;;;;;;1.05;0.50;;;;;;;;;;6148833;23;20352;-73
2022/09/08 02:53:01;;;;;;;2.65;1.02;;;15.10;99.90;;;;;;6147889;23;20017;-72
2022/09/08 02:55:27;;;;;;;0.90;0.90;;;15.10;99.90;;;;;;6148791;23;20006;-72
2022/09/08 02:57:53;;;;;;;0.82;0.73;;;;;;;;;;6148659;23;20408;-73
2022/09/08 03:00:20;;;;;;;0.47;0.47;;;14.70;99.90;;;;;;6148673;23;20037;-73
2022/09/08 03:02:46;;;;;;;0.65;0.65;;;;;;;;;;6146437;23;20005;-73
2022/09/08 03:05:13;;;;;;;1.25;0.77;;;14.80;99.90;;;;;;6149252;23;20016;-72
2022/09/08 03:07:39;;;;;;;0.93;0.60;;;;;;;;;;6149760;23;20008;-73
2022/09/08 03:10:06;;;;;;;0.75;0.75;;;15.90;99.90;;;;;;6149300;23;20002;-73
2022/09/08 03:12:33;;;;;;;0.80;0.80;;;14.90;99.90;;;;;;6147651;23;20478;-72
2022/09/08 03:14:59;;;;;;;0.75;0.75;;;14.80;99.90;;;;;;6147174;23;20013;-73
2022/09/08 03:17:25;;;;;;;0.80;0.80;;;14.60;99.90;;;;;;6150208;23;20500;-73
2022/09/08 03:19:54;;;;;;;4.78;1.08;;;15.10;99.90;;;;;;6148903;23;20055;-72
2022/09/08 03:22:20;;;;;;;1.15;0.90;;;;;;;;;;6148540;23;20022;-72
2022/09/08 03:24:46;;;;;;;3.80;0.93;;;;;;;;;;6148825;23;20056;-72
2022/09/08 03:27:12;;;;;;;1.17;0.83;;;15.20;99.90;;;;;;6150281;23;20032;-72
2022/09/08 03:29:38;;;;;;;7.63;1.02;;;;;;;;;;6148091;23;20431;-72
2022/09/08 03:32:05;;;;;;;3.15;1.00;;;;;;;;;;6148380;23;20029;-72
2022/09/08 03:34:31;;;;;;;1.40;1.00;;;;;;;;;;6148120;23;20115;-72
2022/09/08 03:36:57;;;;;;;6.55;1.20;;;;;;;;;;6150261;23;20001;-72
2022/09/08 03:39:23;;;;;;;1.42;0.85;;;;;;;;;;6149697;23;20008;-73
2022/09/08 03:41:49;;;;;;;1.85;0.90;;;;;;;;;;6146644;23;20356;-73
2022/09/08 03:44:15;;;;;;;1.00;0.80;;;;;;;;;;6148333;23;20033;-73
2022/09/08 03:46:41;;;;;;;0.93;0.88;;;;;;;;;;6149883;23;20113;-72
2022/09/08 03:49:07;;;;;;;3.08;1.10;;;14.50;99.90;;;;;;6149372;23;20405;-72
2022/09/08 03:51:33;;;;;;;0.60;0.60;;;;;;;;;;6148962;23;20082;-73
2022/09/08 03:56:45;;;;;;;1.10;0.82;;;14.60;99.90;;;;;;6149844;23;20068;-73
2022/09/08 03:59:12;;;;;;;1.45;1.20;;;14.60;99.90;;;;;;6150324;23;20384;-72
2022/09/08 04:01:39;;;;;;;1.23;0.90;;;14.50;99.90;;;;;;6150593;23;20415;-73
2022/09/08 04:04:05;;;;;;;0.70;0.70;;;;;;;;;;6148794;23;20081;-73
2022/09/08 04:06:31;;;;;;;2.00;0.95;;;;;;;;;;6151988;23;20024;-74
2022/09/08 04:08:57;;;;;;;1.40;0.98;;;;;;;;;;6149891;23;20009;-73
2022/09/08 04:11:24;;;;;;;1.23;0.93;;;14.40;99.90;;;;;;6149515;23;20520;-73
2022/09/08 04:13:52;;;;;;;6.93;1.00;;;;;;;;;;6150280;23;20009;-73
2022/09/08 04:16:19;;;;;;;2.47;1.23;;;;;;;;;;6149745;23;20014;-72
2022/09/08 04:18:45;;;;;;;3.50;0.90;;;;;;;;;;6152133;23;20006;-72
2022/09/08 04:21:11;;;;;;;0.98;0.98;;;14.30;99.90;;;;;;6147862;23;20531;-72
2022/09/08 04:23:38;;;;;;;0.60;0.57;;;14.30;99.90;;;;;;6149893;23;20053;-72
2022/09/08 04:26:10;;;;;;;1.63;1.50;;;14.20;99.90;;;;;;6149870;23;20005;-73
2022/09/08 04:28:36;;;;;;;0.90;0.80;;;14.40;99.90;;;;;;6152128;23;20033;-73
2022/09/08 04:31:03;;;;;;;1.05;0.80;;;15.50;99.90;;;;;;6149742;23;20001;-73
2022/09/08 04:33:30;;;;;;;;;;;14.20;99.90;;;;;;6150529;23;20006;-73
2022/09/08 04:35:56;;;;;;;0.83;0.80;;;;;;;;;;6150798;23;19924;-73
2022/09/08 04:38:22;;;;;;;2.05;1.27;;;;;;;;;;6151909;23;20005;-72
2022/09/08 04:40:48;;;;;;;1.15;1.05;;;;;;;;;;6149396;23;20020;-72
2022/09/08 04:43:14;;;;;;;4.97;1.20;;;;;;;;;;6148290;23;19998;-73
2022/09/08 04:45:40;;;;;;;1.70;0.95;;;;;;;;;;6149996;23;20433;-72
2022/09/08 04:48:06;;;;;;;2.30;0.70;;;;;;;;;;6151650;23;20005;-72
2022/09/08 04:50:32;;;;;;;9.20;1.25;;;;;;;;;;6149798;23;20052;-72
2022/09/08 04:52:58;;;;;;;1.25;0.90;;;;;;;;;;6149628;23;20097;-73
2022/09/08 04:55:24;;;;;;;2.67;1.25;;;;;;;;;;6150191;23;20056;-73
2022/09/08 04:57:50;;;;;;;1.35;1.25;;;;;;;;;;6151534;23;20005;-73
2022/09/08 05:00:18;;;;;;;0.73;0.73;;;;;;;;;;6149730;23;20015;-72
2022/09/08 05:02:46;;;;;;;0.93;0.70;;;;;;;;;;6148780;23;20094;-72
2022/09/08 05:05:12;;;;;;;1.17;0.85;;;;;;;;;;6150547;23;20060;-73
2022/09/08 05:07:38;;;;;;;0.80;0.80;;;;;;;;;;6151171;23;20387;-72
2022/09/08 05:10:06;;;;;;;1.05;0.95;;;13.80;99.90;;;;;;6149401;23;20626;-72
2022/09/08 05:12:32;;;;;;;1.55;0.90;;;14.10;99.90;;;;;;6148443;23;20001;-72
2022/09/08 05:14:58;;;;;;;1.60;1.05;;;13.80;99.90;;;;;;6149635;23;20002;-72
2022/09/08 05:17:24;;;;;;;1.75;1.10;;;;;;;;;;6145580;23;20013;-76
2022/09/08 05:19:50;;;;;;;0.85;0.80;;;;;;;;;;6147355;23;20013;-76
2022/09/08 05:22:16;;;;;;;0.75;0.73;;;;;;;;;;6147089;23;20396;-76
2022/09/08 05:24:42;;;;;;;1.88;1.55;;;;;;;;;;6146942;23;20016;-77
2022/09/08 05:27:08;;;;;;;0.68;0.60;;;;;;;;;;6148398;23;20005;-77
2022/09/08 05:29:34;;;;;;;3.58;0.80;;;;;;;;;;6148009;23;20005;-77
2022/09/08 05:32:00;;;;;;;1.00;0.90;;;;;;;;;;6145562;23;20523;-76
2022/09/08 05:34:25;;;;;;;4.63;1.45;;;14.60;99.90;;;;;;6147007;23;20028;-77
2022/09/08 05:36:51;;;;;;;1.45;0.82;;;;;;;;;;6147694;23;20006;-76
2022/09/08 05:39:17;;;;;;;0.75;0.75;;;;;;;;;;6147770;23;20005;-79
2022/09/08 05:41:43;;;;;;;1.20;1.00;;;;;;;;;;6134279;23;20136;-80
2022/09/08 05:44:13;;;;;;;2.17;0.80;;;15.50;99.90;;;;;;6175401;23;20044;-79
2022/09/08 05:46:39;;;;;;;1.50;0.95;;;;;;;;;;6178565;23;20016;-76
2022/09/08 05:49:05;;;;;;;1.85;1.20;;;;;;;;;;6178155;23;20658;-76
2022/09/08 05:51:32;;;;;;;8.00;1.10;;;;;;;;;;6176884;23;20001;-76
2022/09/08 05:53:59;;;;;;;2.63;1.00;;;15.20;99.90;;;;;;6175538;23;20001;-76
2022/09/08 05:56:25;;;;;;;4.70;1.23;;;;;;;;;;6170657;23;20108;-73
2022/09/08 05:58:55;;;;;;;1.33;0.98;;;15.50;99.90;;;;;;6178335;23;20604;-78
2022/09/08 06:01:21;;;;;;;2.50;1.00;;;15.80;99.90;;;;;;6179759;23;20016;-75
2022/09/08 06:03:50;;;;;;;8.80;1.13;;;15.70;99.90;;;;;;6180470;23;20505;-75
2022/09/08 06:06:17;;;;;;;1.10;0.77;;;;;;;;;;6180472;23;20486;-75
2022/09/08 06:08:43;;;;;;;1.08;0.73;;;;;;;;;;6180113;23;20048;-75
2022/09/08 06:11:10;;;;;;;0.88;0.88;;;14.70;99.90;;;;;;6180376;23;20009;-75
2022/09/08 06:13:36;;;;;;;0.50;0.50;;;15.70;99.90;;;;;;6180596;23;20111;-75
2022/09/08 06:16:08;;;;;;;3.65;1.00;;;16.10;99.90;;;;;;6194123;23;20359;-75
2022/09/08 06:18:38;;;;;;;1.30;1.10;;;17.70;99.90;;;;;;6210247;23;20029;-75
2022/09/08 06:21:11;;;;;;;1.30;0.90;;;21.70;98.70;;;;;;6182814;23;20017;-77
2022/09/08 06:23:37;;;;;;;2.67;1.10;;;;;;;;;;6210285;23;20399;-79
2022/09/08 06:26:41;;;;;;;1.58;1.02;;;25.70;77.40;;;;;;6210641;23;20928;-80
2022/09/08 06:29:41;;;;;;;1.08;0.60;;;23.60;83.30;;;;;;6206630;23;20020;-78
2022/09/08 06:32:20;;;;;;;0.80;0.75;;;23.50;89.00;;;;;;6208945;23;20020;-78
2022/09/08 06:34:59;;;;;;;1.10;1.00;;;28.90;77.20;;;;;;6210410;23;20532;-80
2022/09/08 06:37:42;;;;;;;0.63;0.63;;;32.40;65.40;;;;;;6210155;23;20001;-80
2022/09/08 06:40:38;;;;;;;0.93;0.63;;;35.10;57.10;;;;;;6209812;23;20430;-79
2022/09/08 06:43:12;;;;;;;1.25;0.40;;;36.90;50.40;;;;;;6210032;23;20035;-82
2022/09/08 06:46:03;;;;;;;1.95;0.47;;;35.90;61.00;;;;;;6208897;23;20092;-77
2022/09/08 06:48:37;;;;;;;1.25;0.57;;;39.20;49.80;;;;;;6210677;23;20004;-79
2022/09/08 06:51:21;;;;;;;0.47;0.20;;;40.30;52.10;;;;;;6210656;23;20007;-79
2022/09/08 06:54:05;;;;;;;1.17;0.60;;;40.00;43.90;;;;;;6209621;23;20000;-79
2022/09/08 06:57:12;;;;;;;0.85;0.50;;;39.70;47.30;;;;;;6210456;23;20074;-79
2022/09/08 07:00:15;;;;;;;0.80;0.40;;;42.40;50.00;;;;;;6183989;23;20008;-79
2022/09/08 07:02:48;;;;;;;1.65;0.95;;;44.40;39.30;;;;;;6210512;23;20067;-79
2022/09/08 07:05:34;;;;;;;0.43;0.35;;;45.80;39.30;;;;;;6210560;23;20000;-80
2022/09/08 07:08:21;;;;;;;0.60;0.45;;;46.90;44.60;;;;;;6210465;23;20079;-80
2022/09/08 07:11:17;;;;;;;0.68;0.50;;;48.80;34.30;;;;;;6210339;23;20001;-79
2022/09/08 07:14:06;;;;;;;1.15;0.40;;;50.80;40.20;;;;;;6183481;23;20372;-80
2022/09/08 07:16:46;;;;;;;0.47;0.40;;;52.70;38.20;;;;;;6209523;23;20012;-80
2022/09/08 07:19:20;;;;;;;3.30;0.80;;;53.40;30.00;;;;;;6210336;23;20004;-80
2022/09/08 07:21:46;;;;;;;3.10;0.80;;;;;;;;;;6206372;23;20105;-80
2022/09/08 07:24:15;;;;;;;2.30;0.80;;;54.60;32.80;;;;;;6209582;23;20079;-80
2022/09/08 07:26:57;;;;;;;1.45;0.73;;;55.10;34.40;;;;;;6211309;23;20031;-86
2022/09/08 07:29:42;;;;;;;0.40;0.30;;;53.00;28.10;;;;;;6210394;23;20031;-82
2022/09/08 07:32:19;;;;;;;0.70;0.40;;;50.10;30.50;;;;;;6209793;23;20012;-82
2022/09/08 07:35:03;;;;;;;1.95;0.20;;;47.10;29.10;;;;;;6212335;23;20004;-84
2022/09/08 07:37:38;;;;;;;1.38;0.20;;;;;;;;;;6211631;23;20001;-81
2022/09/08 07:40:19;;;;;;;2.67;0.32;;;43.70;39.20;;;;;;6211967;23;20467;-82
2022/09/08 07:42:56;;;;;;;0.75;0.50;;;44.30;31.80;;;;;;6212075;23;20001;-82
2022/09/08 07:45:35;;;;;;;0.73;0.38;;;43.40;39.10;;;;;;6211408;23;20012;-82
2022/09/08 07:48:23;;;;;;;1.88;0.70;;;44.90;34.90;;;;;;6211946;23;20008;-82
2022/09/08 07:51:11;;;;;;;1.33;0.70;;;48.10;29.10;;;;;;6211874;23;20001;-82
2022/09/08 07:53:59;;;;;;;2.70;0.55;;;45.40;29.60;;;;;;6211695;23;20020;-80
2022/09/08 07:56:30;;;;;;;1.48;0.57;;;47.90;31.20;;;;;;6212592;23;20055;-79
2022/09/08 07:59:04;;;;;;;1.42;0.38;;;47.60;28.60;;;;;;6212282;23;20329;-80
2022/09/08 08:01:37;;;;;;;3.60;0.88;;;47.10;36.40;;;;;;6211624;23;20013;-82
2022/09/08 08:04:21;;;;;;;2.90;0.70;;;50.60;31.30;;;;;;6211924;23;20058;-83
2022/09/08 08:06:50;;;;;;;2.10;1.00;;;52.40;27.40;;;;;;6211183;23;20008;-81
2022/09/08 08:09:41;;;;;;;1.48;0.98;;;53.00;26.80;;;;;;6211678;23;20008;-83
2022/09/08 08:12:35;;;;;;;6.40;0.90;;;53.30;26.60;;;;;;6212265;23;20004;-84
2022/09/08 08:15:26;;;;;;;0.70;0.70;;;54.00;31.80;;;;;;6199536;23;20008;-81
2022/09/08 08:18:30;;;;;;;1.52;0.98;;;54.70;26.20;;;;;;6211601;23;20611;-80
2022/09/08 08:21:13;;;;;;;1.10;1.00;;;55.80;27.10;;;;;;6211726;23;20035;-83
2022/09/08 08:23:57;;;;;;;1.17;0.90;;;54.90;25.50;;;;;;6210597;23;20001;-80
2022/09/08 08:26:47;;;;;;;2.35;0.65;;;51.50;27.00;;;;;;6212105;23;20011;-82
2022/09/08 08:29:22;;;;;;;1.67;1.20;;;51.00;27.70;;;;;;6211228;23;20396;-82
2022/09/08 08:31:57;;;;;;;1.27;1.20;;;53.90;26.40;;;;;;6211932;23;20059;-81
2022/09/08 08:34:48;;;;;;;1.33;1.30;;;55.60;25.20;;;;;;6184934;23;20000;-83
2022/09/08 08:37:21;;;;;;;1.45;1.00;;;55.80;29.00;;;;;;6211244;23;20001;-82
2022/09/08 08:39:50;;;;;;;1.98;1.27;;;54.70;25.60;;;;;;6211877;23;20005;-81
2022/09/08 08:42:47;;;;;;;0.45;0.22;;;49.80;28.40;;;;;;6212252;23;20012;-79
2022/09/08 08:45:28;;;;;;;1.17;0.20;;;46.30;29.20;;;;;;6210002;23;20004;-79
2022/09/08 08:47:54;;;;;;;1.10;0.73;;;;;;;;;;6211129;23;20004;-79
2022/09/08 08:50:29;;;;;;;0.80;0.73;;;50.30;29.60;;;;;;6212088;23;20004;-78
2022/09/08 08:53:32;;;;;;;2.83;0.80;;;51.50;28.70;;;;;;6210942;23;20001;-79
2022/09/08 08:56:17;;;;;;;3.08;0.80;;;53.40;28.20;;;;;;6211414;23;20000;-80
2022/09/08 08:59:41;;;;;;;1.98;1.23;;;55.10;28.30;;;;;;6210603;23;20168;-81
2022/09/08 09:02:18;;;;;;;2.33;1.10;;;55.90;23.50;;;;;;6211101;23;20012;-78
2022/09/08 09:04:53;;;;;;;1.92;1.20;;;57.50;27.70;;;;;;6210748;23;20086;-79
2022/09/08 09:07:41;;;;;;;1.33;1.27;;;58.30;22.90;;;;;;6210678;23;20009;-79
2022/09/08 09:10:09;;;;;;;1.10;1.10;;;58.10;22.70;;;;;;6211361;23;20082;-80
2022/09/08 09:13:16;;;;;;;2.53;1.77;;;57.30;23.40;;;;;;6211103;23;20098;-79
2022/09/08 09:16:11;;;;;;;3.42;1.35;;;57.90;22.50;;;;;;6210090;23;20020;-81
2022/09/08 09:19:04;;;;;;;2.92;1.40;;;57.10;22.40;;;;;;6210753;23;20001;-81
2022/09/08 09:21:52;;;;;;;1.42;1.33;;;57.60;26.70;;;;;;6210638;23;20456;-77
2022/09/08 09:24:36;;;;;;;5.15;1.50;;;57.40;26.70;;;;;;6210634;23;20024;-78
2022/09/08 09:27:33;;;;;;;1.70;1.60;;;57.00;22.10;;;;;;6211788;23;20343;-83
2022/09/08 09:30:26;;;;;;;2.08;1.17;;;55.80;22.00;;;;;;6089110;23;20106;-82
2022/09/08 09:32:52;;;;;;;2.25;1.40;;;;;;;;;;6089024;23;20094;-79
2022/09/08 09:35:39;;;;;;;3.40;1.30;;;55.70;25.50;;;;;;6088769;23;20119;-79
2022/09/08 09:38:23;;;;;;;1.23;1.10;;;55.00;23.50;;;;;;6089444;23;20007;-79
2022/09/08 09:41:25;;;;;;;2.72;1.17;;;54.40;22.90;;;;;;6088722;23;20010;-79
2022/09/08 09:43:56;;;;;;;1.27;1.05;;;54.00;22.50;;;;;;6088694;23;20093;-81
2022/09/08 09:46:53;;;;;;;1.08;0.93;;;54.80;22.20;;;;;;6088516;23;20065;-82
2022/09/08 09:49:46;;;;;;;2.30;0.95;;;55.80;22.10;;;;;;6089337;23;20010;-79
2022/09/08 09:52:23;;;;;;;1.50;1.00;;;54.80;21.70;;;;;;6088769;23;20010;-79
2022/09/08 09:55:11;;;;;;;0.88;0.80;;;54.60;22.80;;;;;;6088629;23;20014;-79
2022/09/08 09:58:01;;;;;;;4.15;1.20;;;53.90;24.10;;;;;;6084987;23;20701;-77
2022/09/08 10:00:55;;;;;;;1.98;0.90;;;52.80;22.00;;;;;;6089008;23;20077;-79
2022/09/08 10:03:51;;;;;;;0.75;0.75;;;52.00;22.10;;;;;;6088728;23;20014;-80
2022/09/08 10:07:01;;;;;;;2.00;0.93;;;50.30;22.50;;;;;;6120255;23;20004;-81
2022/09/08 10:09:50;;;;;;;0.73;0.60;;;49.80;22.80;;;;;;6210380;23;20005;-80
2022/09/08 10:12:21;;;;;;;2.47;0.60;;;51.00;23.40;;;;;;6210881;23;20055;-81
2022/09/08 10:14:47;;;;;;;0.50;0.50;;;;;;;;;;6182624;23;20024;-81
2022/09/08 10:17:25;;;;;;;0.52;0.52;;;52.70;22.30;;;;;;6210480;23;20035;-81
2022/09/08 10:20:17;;;;;;;1.15;0.47;;;53.30;22.10;;;;;;6209832;23;20479;-88
2022/09/08 10:22:57;;;;;;;0.40;0.40;;;52.30;21.80;;;;;;6092860;23;20069;-92
2022/09/08 10:26:02;;;;;;;1.02;0.52;;;51.90;22.10;;;;;;6094385;23;20006;-92
2022/09/08 10:28:51;;;;;;;0.40;0.40;;;51.90;24.10;;;;;;6088770;23;20549;-85
2022/09/08 10:31:17;;;;;;;1.27;0.60;;;;;;;;;;6089013;23;20085;-86
2022/09/08 10:34:01;;;;;;;0.43;0.40;;;51.50;26.50;;;;;;6088855;23;20006;-85
2022/09/08 10:36:53;;;;;;;1.98;0.52;;;52.20;22.10;;;;;;6087805;23;20010;-82
2022/09/08 10:40:00;;;;;;;0.95;0.40;;;52.60;26.20;;;;;;6060323;23;20066;-81
2022/09/08 10:42:42;;;;;;;1.70;0.50;;;52.10;25.70;;;;;;6059223;23;20090;-81
2022/09/08 10:45:08;;;;;;;0.65;0.50;;;;;;;;;;6059426;23;20089;-84
2022/09/08 10:47:42;;;;;;;1.27;0.40;;;50.20;22.30;;;;;;6060438;23;20034;-82
2022/09/08 10:50:17;;;;;;;1.45;0.82;;;49.30;25.50;;;;;;6059799;23;20151;-82
2022/09/08 10:52:49;;;;;;;;;;;52.60;24.80;;;;;;6060311;23;20852;-85
2022/09/08 10:55:38;;;;;;;1.23;0.20;;;46.00;23.70;;;;;;6060144;23;19909;-84
2022/09/08 10:58:50;;;;;;;0.80;0.40;;;47.20;24.70;;;;;;6059326;23;20374;-80
2022/09/08 11:01:24;;;;;;;2.83;0.28;;;49.00;27.00;;;;;;5973113;23;20009;-80
2022/09/08 11:04:01;;;;;;;1.00;0.20;;;51.20;26.80;;;;;;5974783;23;20068;-81
2022/09/08 11:06:53;;;;;;;0.75;0.10;;;48.80;26.80;;;;;;5974387;23;20209;-78
2022/09/08 11:09:53;;;;;;;0.20;0.20;;;49.70;25.00;;;;;;6002644;23;20007;-81
2022/09/08 11:12:30;;;;;;;2.13;0.20;;;50.50;23.30;;;;;;6002144;23;20024;-81
2022/09/08 11:15:14;;;;;;;0.60;0.13;;;50.80;24.20;;;;;;6001921;23;20014;-81
2022/09/08 11:17:46;;;;;;;0.33;0.00;;;50.50;28.40;;;;;;6002513;23;20015;-81
2022/09/08 11:20:47;;;;;;;0.20;0.20;;;49.80;23.00;;;;;;6002700;23;20012;-81
2022/09/08 11:23:36;;;;;;;1.00;0.20;;;49.70;23.20;;;;;;6002772;23;20008;-81
2022/09/08 11:26:12;;;;;;;2.33;0.20;;;48.40;23.20;;;;;;6002575;23;20027;-80
2022/09/08 11:28:59;;;;;;;1.02;0.25;;;44.90;24.80;;;;;;6001664;23;20455;-79
2022/09/08 11:32:19;;;;;;;4.18;0.30;;;41.60;27.60;;;;;;6002337;23;20015;-79
2022/09/08 11:34:59;;;;;;;1.67;0.20;;;37.90;27.60;;;;;;5946432;24;20019;-78
2022/09/08 11:37:49;;;;;;;3.17;0.38;;;37.80;28.40;;;;;;5966289;23;20007;-79
2022/09/08 11:40:45;;;;;;;0.10;0.10;;;37.00;28.40;;;;;;6003114;23;20011;-81
2022/09/08 11:43:42;;;;;;;0.85;0.20;;;35.30;29.70;;;;;;6002451;23;20723;-79
2022/09/08 11:46:37;;;;;;;2.72;0.30;;;35.60;29.90;;;;;;6024068;23;20030;-80
2022/09/08 11:49:12;;;;;;;;;;;36.10;30.60;;;;;;6060006;23;20131;-79
2022/09/08 11:51:38;;;;;;;0.30;0.13;;;;;;;;;;6059822;23;20341;-78
2022/09/08 11:54:18;;;;;;;0.13;0.08;;;33.50;42.30;;;;;;6059524;23;20011;-78
2022/09/08 11:57:01;;;;;;;1.30;0.20;;;32.50;32.20;;;;;;6058759;23;20015;-80
2022/09/08 12:00:09;;;;;;;0.20;0.17;;;33.20;32.40;;;;;;6059864;23;20046;-81
2022/09/08 12:03:17;;;;;;;2.72;0.43;;;33.20;31.30;;;;;;6059364;23;20458;-79
2022/09/08 12:06:06;;;;;;;1.00;0.22;;;32.80;32.10;;;;;;6058809;23;20529;-78
2022/09/08 12:09:19;;;;;;;1.15;0.30;;;33.70;32.40;;;;;;6118249;23;20055;-77
2022/09/08 12:12:16;;;;;;;0.13;0.13;;;34.30;33.10;;;;;;6088248;23;20007;-78
2022/09/08 12:15:21;;;;;;;1.45;0.73;;;32.90;43.50;;;;;;6087970;23;20010;-78
2022/09/08 12:18:07;;;;;;;0.10;0.10;;;31.60;34.50;;;;;;6088023;23;20022;-78
2022/09/08 12:20:42;;;;;;;;;;;31.60;35.40;;;;;;6089735;23;20018;-78
2022/09/08 12:23:28;;;;;;;2.05;0.30;;;30.70;44.20;;;;;;6089938;23;19916;-79
2022/09/08 12:26:12;;;;;;;0.65;0.30;;;31.00;47.10;;;;;;6089781;23;20014;-75
2022/09/08 12:29:14;;;;;;;0.75;0.22;;;30.90;46.80;;;;;;6090214;23;20007;-76
2022/09/08 12:31:40;;;;;;;3.10;0.22;;;;;;;;;;6090120;23;20046;-80
2022/09/08 12:34:11;;;;;;;0.20;0.20;;;30.30;35.60;;;;;;6089451;23;20045;-78
2022/09/08 12:36:49;;;;;;;0.30;0.30;;;31.20;42.50;;;;;;6089655;23;20061;-78
2022/09/08 12:39:15;;;;;;;1.20;0.20;;;;;;;;;;6089608;23;20155;-77
2022/09/08 12:42:05;;;;;;;1.60;0.40;;;31.70;35.90;;;;;;6089397;23;20470;-78
2022/09/08 12:44:59;;;;;;;5.15;0.40;;;32.00;34.90;;;;;;6088980;23;20093;-78
2022/09/08 12:47:48;;;;;;;0.10;0.10;;;32.10;34.50;;;;;;6097081;23;20024;-78
2022/09/08 12:50:36;;;;;;;0.52;0.20;;;31.80;39.70;;;;;;6190498;23;20080;-79
2022/09/08 12:53:32;;;;;;;1.13;0.25;;;31.30;35.50;;;;;;6211314;23;20015;-78
2022/09/08 12:56:10;;;;;;;;;;;31.10;35.60;;;;;;6211678;23;20674;-78
2022/09/08 12:59:20;;;;;;;2.58;0.40;;;30.00;37.00;;;;;;6210490;23;19903;-77
2022/09/08 13:02:01;;;;;;;1.35;0.57;;;28.90;37.80;;;;;;6211564;23;20757;-77
2022/09/08 13:05:02;;;;;;;1.85;0.43;;;29.00;38.10;;;;;;6210493;23;20422;-77
2022/09/08 13:08:21;;;;;;;0.60;0.35;;;29.60;37.50;;;;;;6211230;23;20024;-77
2022/09/08 13:10:51;;;;;;;0.75;0.30;;;30.00;39.90;;;;;;6089232;23;20367;-77
2022/09/08 13:13:30;;;;;;;1.90;0.30;;;30.60;45.30;;;;;;6089182;23;20498;-76
2022/09/08 13:16:08;;;;;;;2.38;0.30;;;30.70;42.30;;;;;;6088554;23;20137;-79
2022/09/08 13:18:46;;;;;;;3.67;0.70;;;30.50;36.00;;;;;;6088671;23;20013;-78
2022/09/08 13:21:33;;;;;;;4.40;0.68;;;30.60;48.00;;;;;;6089757;23;20075;-78
2022/09/08 13:24:19;;;;;;;0.52;0.20;;;30.80;35.50;;;;;;6065048;23;20505;-78
2022/09/08 13:27:00;;;;;;;0.37;0.27;;;30.60;35.80;;;;;;6089461;23;20016;-79
2022/09/08 13:29:26;;;;;;;0.60;0.30;;;;;;;;;;6088959;23;20158;-74
2022/09/08 13:32:00;;;;;;;2.73;0.20;;;29.70;35.70;;;;;;6052484;23;20019;-78
2022/09/08 13:34:49;;;;;;;3.17;0.25;;;29.10;36.70;;;;;;6088412;23;20489;-78
2022/09/08 13:37:33;;;;;;;0.20;0.20;;;28.30;37.20;;;;;;6089262;23;20029;-78
2022/09/08 13:40:35;;;;;;;3.20;0.35;;;28.60;37.10;;;;;;6088897;23;20394;-78
2022/09/08 13:43:25;;;;;;;0.30;0.30;;;29.20;41.90;;;;;;6088779;23;20013;-78
2022/09/08 13:46:07;;;;;;;0.30;0.20;;;29.20;40.80;;;;;;6201628;23;20001;-78
2022/09/08 13:48:44;;;;;;;0.40;0.40;;;29.30;36.20;;;;;;6210161;23;20000;-77
2022/09/08 13:51:23;;;;;;;0.75;0.30;;;29.10;42.70;;;;;;6210880;23;20419;-77
2022/09/08 13:54:29;;;;;;;0.32;0.20;;;29.10;36.10;;;;;;6210740;23;20001;-78
2022/09/08 13:57:13;;;;;;;0.30;0.30;;;28.90;35.90;;;;;;6210429;23;20032;-79
2022/09/08 13:59:50;;;;;;;1.77;0.20;;;28.80;45.20;;;;;;6210519;23;20442;-79
2022/09/08 14:02:39;;;;;;;1.52;0.30;;;29.00;35.80;;;;;;6210254;23;20474;-78
2022/09/08 14:05:20;;;;;;;2.75;0.80;;;29.10;35.80;;;;;;6194063;23;20028;-77
2022/09/08 14:08:07;;;;;;;0.47;0.22;;;29.10;35.20;;;;;;6183783;23;20001;-77
2022/09/08 14:10:42;;;;;;;0.85;0.40;;;;;;;;;;6209860;23;20503;-75
2022/09/08 14:13:11;;;;;;;2.28;0.30;;;28.40;35.10;;;;;;6209555;23;20066;-75
2022/09/08 14:16:06;;;;;;;0.52;0.20;;;28.40;38.00;;;;;;6210155;23;20013;-79
2022/09/08 14:19:12;;;;;;;5.57;0.40;;;28.20;35.50;;;;;;6207122;23;20004;-79